sensor_id;sensor_type;location;lat;lon;timestamp;pressure;altitude;pressure_sealevel;temperature;humidity
7026;BME280;3554;42.132;24.786;2023-06-26T00:01:03;98777.75;;;23.65;100.00
7026;BME280;3554;42.132;24.786;2023-06-26T00:03:31;98777.91;;;23.64;100.00
7026;BME280;3554;42.132;24.786;2023-06-26T00:05:58;98771.53;;;23.57;100.00
7026;BME280;3554;42.132;24.786;2023-06-26T00:08:26;98778.63;;;23.48;100.00
7026;BME280;3554;42.132;24.786;2023-06-26T00:10:53;98767.47;;;23.53;100.00
7026;BME280;3554;42.132;24.786;2023-06-26T00:13:20;98765.34;;;23.56;100.00
7026;BME280;3554;42.132;24.786;2023-06-26T00:15:49;98769.16;;;23.54;100.00
7026;BME280;3554;42.132;24.786;2023-06-26T00:18:16;98768.63;;;23.50;100.00
7026;BME280;3554;42.132;24.786;2023-06-26T00:20:43;98755.59;;;23.47;100.00
7026;BME280;3554;42.132;24.786;2023-06-26T00:23:11;98770.22;;;23.35;100.00
7026;BME280;3554;42.132;24.786;2023-06-26T00:25:38;98769.19;;;23.36;100.00
7026;BME280;3554;42.132;24.786;2023-06-26T00:28:05;98785.75;;;23.40;100.00
7026;BME280;3554;42.132;24.786;2023-06-26T00:30:32;98792.47;;;23.44;100.00
7026;BME280;3554;42.132;24.786;2023-06-26T00:33:00;98772.41;;;23.22;100.00
7026;BME280;3554;42.132;24.786;2023-06-26T00:35:27;98794.03;;;23.28;100.00
7026;BME280;3554;42.132;24.786;2023-06-26T00:37:54;98791.97;;;23.22;100.00
7026;BME280;3554;42.132;24.786;2023-06-26T00:40:21;98778.00;;;23.11;100.00
7026;BME280;3554;42.132;24.786;2023-06-26T00:42:48;98788.00;;;23.09;100.00
7026;BME280;3554;42.132;24.786;2023-06-26T00:45:15;98789.22;;;23.14;100.00
7026;BME280;3554;42.132;24.786;2023-06-26T00:47:42;98787.34;;;23.07;100.00
7026;BME280;3554;42.132;24.786;2023-06-26T00:50:10;98796.16;;;23.07;100.00
7026;BME280;3554;42.132;24.786;2023-06-26T00:52:37;98776.56;;;22.99;100.00
7026;BME280;3554;42.132;24.786;2023-06-26T00:55:05;98795.03;;;23.10;100.00
7026;BME280;3554;42.132;24.786;2023-06-26T00:57:32;98787.34;;;23.07;100.00
7026;BME280;3554;42.132;24.786;2023-06-26T01:00:01;98791.84;;;23.06;100.00
7026;BME280;3554;42.132;24.786;2023-06-26T01:02:29;98785.66;;;23.06;100.00
7026;BME280;3554;42.132;24.786;2023-06-26T01:04:59;98793.28;;;23.01;100.00
7026;BME280;3554;42.132;24.786;2023-06-26T01:07:30;98800.03;;;22.87;100.00
7026;BME280;3554;42.132;24.786;2023-06-26T01:09:57;98794.22;;;22.92;100.00
7026;BME280;3554;42.132;24.786;2023-06-26T01:12:25;98782.09;;;22.80;100.00
7026;BME280;3554;42.132;24.786;2023-06-26T01:14:52;98776.13;;;22.86;100.00
7026;BME280;3554;42.132;24.786;2023-06-26T01:17:19;98794.97;;;22.84;100.00
7026;BME280;3554;42.132;24.786;2023-06-26T01:19:46;98791.06;;;22.79;100.00
7026;BME280;3554;42.132;24.786;2023-06-26T01:22:19;98792.63;;;22.81;100.00
7026;BME280;3554;42.132;24.786;2023-06-26T01:24:56;98806.56;;;22.75;100.00
7026;BME280;3554;42.132;24.786;2023-06-26T01:27:30;98771.44;;;22.62;100.00
7026;BME280;3554;42.132;24.786;2023-06-26T01:30:00;98805.09;;;22.81;100.00
7026;BME280;3554;42.132;24.786;2023-06-26T01:32:29;98800.09;;;22.78;100.00
7026;BME280;3554;42.132;24.786;2023-06-26T01:34:57;98791.31;;;22.68;100.00
7026;BME280;3554;42.132;24.786;2023-06-26T01:37:24;98783.91;;;22.62;100.00
7026;BME280;3554;42.132;24.786;2023-06-26T01:39:51;98797.03;;;22.55;100.00
7026;BME280;3554;42.132;24.786;2023-06-26T01:42:18;98789.56;;;22.59;100.00
7026;BME280;3554;42.132;24.786;2023-06-26T01:44:47;98786.59;;;22.62;100.00
7026;BME280;3554;42.132;24.786;2023-06-26T01:47:16;98788.72;;;22.58;100.00
7026;BME280;3554;42.132;24.786;2023-06-26T01:49:47;98780.41;;;22.61;100.00
7026;BME280;3554;42.132;24.786;2023-06-26T01:52:20;98795.66;;;22.69;100.00
7026;BME280;3554;42.132;24.786;2023-06-26T01:54:57;98792.06;;;22.78;100.00
7026;BME280;3554;42.132;24.786;2023-06-26T01:57:26;98775.06;;;22.61;100.00
7026;BME280;3554;42.132;24.786;2023-06-26T01:59:56;98781.84;;;22.56;100.00
7026;BME280;3554;42.132;24.786;2023-06-26T02:02:24;98786.78;;;22.51;100.00
7026;BME280;3554;42.132;24.786;2023-06-26T02:04:51;98795.19;;;22.56;100.00
7026;BME280;3554;42.132;24.786;2023-06-26T02:07:18;98793.38;;;22.56;100.00
7026;BME280;3554;42.132;24.786;2023-06-26T02:09:45;98794.47;;;22.54;100.00
7026;BME280;3554;42.132;24.786;2023-06-26T02:12:12;98799.06;;;22.61;100.00
7026;BME280;3554;42.132;24.786;2023-06-26T02:14:39;98789.59;;;22.49;100.00
7026;BME280;3554;42.132;24.786;2023-06-26T02:17:07;98799.38;;;22.58;100.00
7026;BME280;3554;42.132;24.786;2023-06-26T02:19:34;98803.56;;;22.61;100.00
7026;BME280;3554;42.132;24.786;2023-06-26T02:22:01;98807.94;;;22.62;100.00
7026;BME280;3554;42.132;24.786;2023-06-26T02:24:28;98785.75;;;22.61;100.00
7026;BME280;3554;42.132;24.786;2023-06-26T02:26:55;98799.41;;;22.76;100.00
7026;BME280;3554;42.132;24.786;2023-06-26T02:29:23;98797.47;;;22.86;100.00
7026;BME280;3554;42.132;24.786;2023-06-26T02:31:49;98798.63;;;22.83;100.00
7026;BME280;3554;42.132;24.786;2023-06-26T02:34:18;98791.31;;;22.68;100.00
7026;BME280;3554;42.132;24.786;2023-06-26T02:36:44;98799.34;;;22.85;100.00
7026;BME280;3554;42.132;24.786;2023-06-26T02:39:11;98791.44;;;22.84;100.00
7026;BME280;3554;42.132;24.786;2023-06-26T02:41:39;98785.22;;;22.75;100.00
7026;BME280;3554;42.132;24.786;2023-06-26T02:44:06;98795.88;;;22.75;100.00
7026;BME280;3554;42.132;24.786;2023-06-26T02:46:33;98787.88;;;22.75;100.00
7026;BME280;3554;42.132;24.786;2023-06-26T02:48:59;98786.06;;;22.76;100.00
7026;BME280;3554;42.132;24.786;2023-06-26T02:51:28;98793.75;;;22.79;100.00
7026;BME280;3554;42.132;24.786;2023-06-26T02:53:54;98800.31;;;22.67;100.00
7026;BME280;3554;42.132;24.786;2023-06-26T02:56:21;98796.56;;;22.60;100.00
7026;BME280;3554;42.132;24.786;2023-06-26T02:58:48;98795.72;;;22.59;100.00
7026;BME280;3554;42.132;24.786;2023-06-26T03:01:15;98795.13;;;22.65;100.00
7026;BME280;3554;42.132;24.786;2023-06-26T03:03:42;98790.69;;;22.56;100.00
7026;BME280;3554;42.132;24.786;2023-06-26T03:06:08;98800.78;;;22.62;100.00
7026;BME280;3554;42.132;24.786;2023-06-26T03:08:37;98810.59;;;22.62;100.00
7026;BME280;3554;42.132;24.786;2023-06-26T03:11:04;98810.00;;;22.68;100.00
7026;BME280;3554;42.132;24.786;2023-06-26T03:13:32;98809.53;;;22.72;100.00
7026;BME280;3554;42.132;24.786;2023-06-26T03:15:58;98813.66;;;22.67;100.00
7026;BME280;3554;42.132;24.786;2023-06-26T03:18:25;98811.34;;;22.72;100.00
7026;BME280;3554;42.132;24.786;2023-06-26T03:20:52;98798.63;;;22.66;100.00
7026;BME280;3554;42.132;24.786;2023-06-26T03:23:20;98802.81;;;22.68;100.00
7026;BME280;3554;42.132;24.786;2023-06-26T03:25:49;98804.78;;;22.66;100.00
7026;BME280;3554;42.132;24.786;2023-06-26T03:28:16;98812.53;;;22.69;100.00
7026;BME280;3554;42.132;24.786;2023-06-26T03:30:43;98793.75;;;22.61;100.00
7026;BME280;3554;42.132;24.786;2023-06-26T03:33:10;98796.72;;;22.76;100.00
7026;BME280;3554;42.132;24.786;2023-06-26T03:35:37;98803.28;;;22.81;100.00
7026;BME280;3554;42.132;24.786;2023-06-26T03:38:04;98812.41;;;22.96;100.00
7026;BME280;3554;42.132;24.786;2023-06-26T03:40:31;98803.88;;;22.93;100.00
7026;BME280;3554;42.132;24.786;2023-06-26T03:42:59;98798.25;;;22.96;100.00
7026;BME280;3554;42.132;24.786;2023-06-26T03:45:26;98794.69;;;22.87;100.00
7026;BME280;3554;42.132;24.786;2023-06-26T03:47:52;98799.75;;;22.98;100.00
7026;BME280;3554;42.132;24.786;2023-06-26T03:50:19;98805.78;;;23.00;100.00
7026;BME280;3554;42.132;24.786;2023-06-26T03:52:46;98785.97;;;23.03;100.00
7026;BME280;3554;42.132;24.786;2023-06-26T03:55:13;98793.44;;;22.99;100.00
7026;BME280;3554;42.132;24.786;2023-06-26T03:57:40;98790.78;;;23.25;100.00
7026;BME280;3554;42.132;24.786;2023-06-26T04:00:09;98770.13;;;23.27;100.00
7026;BME280;3554;42.132;24.786;2023-06-26T04:02:38;98776.09;;;23.39;100.00
7026;BME280;3554;42.132;24.786;2023-06-26T04:05:05;98766.72;;;23.68;100.00
7026;BME280;3554;42.132;24.786;2023-06-26T04:07:32;98749.47;;;24.38;100.00
7026;BME280;3554;42.132;24.786;2023-06-26T04:10:00;98766.28;;;24.72;100.00
7026;BME280;3554;42.132;24.786;2023-06-26T04:12:27;98761.88;;;24.55;100.00
7026;BME280;3554;42.132;24.786;2023-06-26T04:14:54;98755.84;;;24.45;100.00
7026;BME280;3554;42.132;24.786;2023-06-26T04:17:22;98758.75;;;24.84;100.00
7026;BME280;3554;42.132;24.786;2023-06-26T04:19:49;98768.97;;;24.80;100.00
7026;BME280;3554;42.132;24.786;2023-06-26T04:22:15;98769.31;;;25.42;100.00
7026;BME280;3554;42.132;24.786;2023-06-26T04:24:42;98754.72;;;26.07;100.00
7026;BME280;3554;42.132;24.786;2023-06-26T04:27:11;98755.44;;;26.54;100.00
7026;BME280;3554;42.132;24.786;2023-06-26T04:29:39;98758.09;;;26.62;100.00
7026;BME280;3554;42.132;24.786;2023-06-26T04:32:06;98760.88;;;26.77;100.00
7026;BME280;3554;42.132;24.786;2023-06-26T04:34:34;98769.69;;;27.08;100.00
7026;BME280;3554;42.132;24.786;2023-06-26T04:37:02;98767.47;;;27.11;100.00
7026;BME280;3554;42.132;24.786;2023-06-26T04:39:30;98756.84;;;27.70;100.00
7026;BME280;3554;42.132;24.786;2023-06-26T04:41:56;98761.47;;;27.76;100.00
7026;BME280;3554;42.132;24.786;2023-06-26T04:44:24;98778.91;;;27.80;100.00
7026;BME280;3554;42.132;24.786;2023-06-26T04:46:50;98782.66;;;27.41;100.00
7026;BME280;3554;42.132;24.786;2023-06-26T04:49:18;98771.56;;;26.54;100.00
7026;BME280;3554;42.132;24.786;2023-06-26T04:51:46;98779.31;;;26.18;100.00
7026;BME280;3554;42.132;24.786;2023-06-26T04:54:14;98773.84;;;25.96;100.00
7026;BME280;3554;42.132;24.786;2023-06-26T04:56:40;98788.00;;;25.66;100.00
7026;BME280;3554;42.132;24.786;2023-06-26T04:59:07;98796.72;;;25.68;100.00
7026;BME280;3554;42.132;24.786;2023-06-26T05:01:38;98779.97;;;25.74;100.00
7026;BME280;3554;42.132;24.786;2023-06-26T05:04:05;98783.38;;;26.45;100.00
7026;BME280;3554;42.132;24.786;2023-06-26T05:06:32;98796.00;;;26.90;100.00
7026;BME280;3554;42.132;24.786;2023-06-26T05:09:00;98802.22;;;26.90;100.00
7026;BME280;3554;42.132;24.786;2023-06-26T05:11:27;98794.19;;;27.27;100.00
7026;BME280;3554;42.132;24.786;2023-06-26T05:13:53;98803.66;;;27.01;100.00
7026;BME280;3554;42.132;24.786;2023-06-26T05:16:20;98818.50;;;26.97;100.00
7026;BME280;3554;42.132;24.786;2023-06-26T05:18:47;98812.09;;;26.67;100.00
7026;BME280;3554;42.132;24.786;2023-06-26T05:21:15;98823.50;;;26.77;100.00
7026;BME280;3554;42.132;24.786;2023-06-26T05:23:43;98827.13;;;26.54;100.00
7026;BME280;3554;42.132;24.786;2023-06-26T05:26:13;98810.75;;;26.63;100.00
7026;BME280;3554;42.132;24.786;2023-06-26T05:28:41;98799.31;;;25.92;100.00
7026;BME280;3554;42.132;24.786;2023-06-26T05:31:10;98826.22;;;25.76;100.00
7026;BME280;3554;42.132;24.786;2023-06-26T05:33:37;98832.09;;;26.34;100.00
7026;BME280;3554;42.132;24.786;2023-06-26T05:36:07;98793.94;;;27.00;100.00
7026;BME280;3554;42.132;24.786;2023-06-26T05:38:36;98829.31;;;27.34;100.00
7026;BME280;3554;42.132;24.786;2023-06-26T05:41:03;98829.94;;;27.36;100.00
7026;BME280;3554;42.132;24.786;2023-06-26T05:43:31;98832.72;;;27.80;100.00
7026;BME280;3554;42.132;24.786;2023-06-26T05:45:58;98831.09;;;27.93;100.00
7026;BME280;3554;42.132;24.786;2023-06-26T05:48:25;98841.25;;;27.83;100.00
7026;BME280;3554;42.132;24.786;2023-06-26T05:50:52;98829.31;;;27.48;100.00
7026;BME280;3554;42.132;24.786;2023-06-26T05:53:19;98832.81;;;27.34;100.00
7026;BME280;3554;42.132;24.786;2023-06-26T05:55:47;98823.94;;;27.26;100.00
7026;BME280;3554;42.132;24.786;2023-06-26T05:58:14;98816.53;;;27.51;100.00
7026;BME280;3554;42.132;24.786;2023-06-26T06:00:44;98830.22;;;27.78;100.00
7026;BME280;3554;42.132;24.786;2023-06-26T06:03:10;98828.41;;;27.93;100.00
7026;BME280;3554;42.132;24.786;2023-06-26T06:05:37;98828.09;;;27.88;100.00
7026;BME280;3554;42.132;24.786;2023-06-26T06:08:04;98826.09;;;28.05;100.00
7026;BME280;3554;42.132;24.786;2023-06-26T06:10:31;98812.50;;;27.84;100.00
7026;BME280;3554;42.132;24.786;2023-06-26T06:12:58;98819.91;;;27.07;100.00
7026;BME280;3554;42.132;24.786;2023-06-26T06:15:24;98831.03;;;26.74;100.00
7026;BME280;3554;42.132;24.786;2023-06-26T06:17:53;98844.69;;;26.64;100.00
7026;BME280;3554;42.132;24.786;2023-06-26T06:20:19;98838.53;;;26.56;100.00
7026;BME280;3554;42.132;24.786;2023-06-26T06:22:46;98842.72;;;26.19;100.00
7026;BME280;3554;42.132;24.786;2023-06-26T06:25:14;98839.22;;;26.11;100.00
7026;BME280;3554;42.132;24.786;2023-06-26T06:27:41;98835.06;;;25.84;100.00
7026;BME280;3554;42.132;24.786;2023-06-26T06:30:10;98838.97;;;25.74;100.00
7026;BME280;3554;42.132;24.786;2023-06-26T06:32:37;98834.94;;;25.70;100.00
7026;BME280;3554;42.132;24.786;2023-06-26T06:35:06;98838.03;;;25.97;100.00
7026;BME280;3554;42.132;24.786;2023-06-26T06:37:35;98801.03;;;25.85;100.00
7026;BME280;3554;42.132;24.786;2023-06-26T06:40:02;98834.16;;;26.16;100.00
7026;BME280;3554;42.132;24.786;2023-06-26T06:42:31;98835.22;;;25.99;100.00
7026;BME280;3554;42.132;24.786;2023-06-26T06:44:58;98833.88;;;25.87;100.00
7026;BME280;3554;42.132;24.786;2023-06-26T06:47:25;98836.09;;;25.75;100.00
7026;BME280;3554;42.132;24.786;2023-06-26T06:49:51;98834.72;;;25.95;100.00
7026;BME280;3554;42.132;24.786;2023-06-26T06:52:20;98832.16;;;26.18;100.00
7026;BME280;3554;42.132;24.786;2023-06-26T06:54:53;98831.97;;;26.19;100.00
7026;BME280;3554;42.132;24.786;2023-06-26T06:57:20;98836.72;;;26.40;100.00
7026;BME280;3554;42.132;24.786;2023-06-26T06:59:47;98841.34;;;26.62;100.00
7026;BME280;3554;42.132;24.786;2023-06-26T07:02:15;98835.06;;;26.78;100.00
7026;BME280;3554;42.132;24.786;2023-06-26T07:04:42;98825.88;;;26.95;100.00
7026;BME280;3554;42.132;24.786;2023-06-26T07:07:09;98839.69;;;27.14;100.00
7026;BME280;3554;42.132;24.786;2023-06-26T07:09:38;98845.59;;;27.32;100.00
7026;BME280;3554;42.132;24.786;2023-06-26T07:12:05;98836.09;;;27.44;100.00
7026;BME280;3554;42.132;24.786;2023-06-26T07:14:32;98830.56;;;27.75;100.00
7026;BME280;3554;42.132;24.786;2023-06-26T07:16:58;98803.13;;;27.65;100.00
7026;BME280;3554;42.132;24.786;2023-06-26T07:19:25;98836.84;;;28.19;100.00
7026;BME280;3554;42.132;24.786;2023-06-26T07:21:52;98843.63;;;28.01;100.00
7026;BME280;3554;42.132;24.786;2023-06-26T07:24:19;98831.66;;;28.03;100.00
7026;BME280;3554;42.132;24.786;2023-06-26T07:26:47;98830.63;;;28.33;100.00
7026;BME280;3554;42.132;24.786;2023-06-26T07:29:14;98836.47;;;28.37;100.00
7026;BME280;3554;42.132;24.786;2023-06-26T07:31:41;98840.03;;;28.73;100.00
7026;BME280;3554;42.132;24.786;2023-06-26T07:34:07;98846.41;;;28.87;100.00
7026;BME280;3554;42.132;24.786;2023-06-26T07:36:34;98841.53;;;29.11;100.00
7026;BME280;3554;42.132;24.786;2023-06-26T07:39:01;98834.03;;;28.71;100.00
7026;BME280;3554;42.132;24.786;2023-06-26T07:41:28;98845.88;;;29.12;100.00
7026;BME280;3554;42.132;24.786;2023-06-26T07:43:58;98835.47;;;29.30;100.00
7026;BME280;3554;42.132;24.786;2023-06-26T07:46:25;98852.19;;;29.40;100.00
7026;BME280;3554;42.132;24.786;2023-06-26T07:48:52;98841.44;;;29.68;100.00
7026;BME280;3554;42.132;24.786;2023-06-26T07:51:19;98852.06;;;30.04;100.00
7026;BME280;3554;42.132;24.786;2023-06-26T07:53:46;98862.31;;;30.49;100.00
7026;BME280;3554;42.132;24.786;2023-06-26T07:56:13;98864.81;;;30.50;100.00
7026;BME280;3554;42.132;24.786;2023-06-26T07:58:40;98848.03;;;30.62;100.00
7026;BME280;3554;42.132;24.786;2023-06-26T08:01:08;98859.81;;;31.01;100.00
7026;BME280;3554;42.132;24.786;2023-06-26T08:03:35;98861.56;;;31.35;100.00
7026;BME280;3554;42.132;24.786;2023-06-26T08:06:02;98852.63;;;31.47;100.00
7026;BME280;3554;42.132;24.786;2023-06-26T08:08:29;98856.09;;;31.15;100.00
7026;BME280;3554;42.132;24.786;2023-06-26T08:10:56;98859.38;;;30.91;100.00
7026;BME280;3554;42.132;24.786;2023-06-26T08:13:23;98852.19;;;30.23;100.00
7026;BME280;3554;42.132;24.786;2023-06-26T08:15:50;98866.28;;;29.64;100.00
7026;BME280;3554;42.132;24.786;2023-06-26T08:18:19;98851.91;;;29.14;100.00
7026;BME280;3554;42.132;24.786;2023-06-26T08:20:45;98845.03;;;28.91;100.00
7026;BME280;3554;42.132;24.786;2023-06-26T08:23:12;98836.00;;;28.48;100.00
7026;BME280;3554;42.132;24.786;2023-06-26T08:25:39;98849.03;;;28.80;100.00
7026;BME280;3554;42.132;24.786;2023-06-26T08:28:06;98857.09;;;28.80;100.00
7026;BME280;3554;42.132;24.786;2023-06-26T08:30:33;98837.50;;;28.86;100.00
7026;BME280;3554;42.132;24.786;2023-06-26T08:32:59;98826.34;;;28.39;100.00
7026;BME280;3554;42.132;24.786;2023-06-26T08:35:27;98847.38;;;27.40;100.00
7026;BME280;3554;42.132;24.786;2023-06-26T08:37:54;98845.19;;;26.29;100.00
7026;BME280;3554;42.132;24.786;2023-06-26T08:40:21;98848.28;;;25.94;100.00
7026;BME280;3554;42.132;24.786;2023-06-26T08:42:48;98845.94;;;25.99;100.00
7026;BME280;3554;42.132;24.786;2023-06-26T08:45:18;98835.84;;;26.01;100.00
7026;BME280;3554;42.132;24.786;2023-06-26T08:47:47;98839.84;;;26.21;100.00
7026;BME280;3554;42.132;24.786;2023-06-26T08:50:20;98837.81;;;26.23;100.00
7026;BME280;3554;42.132;24.786;2023-06-26T08:52:54;98814.94;;;26.35;100.00
7026;BME280;3554;42.132;24.786;2023-06-26T08:55:23;98796.63;;;26.77;100.00
7026;BME280;3554;42.132;24.786;2023-06-26T08:57:52;98826.34;;;27.43;100.00
7026;BME280;3554;42.132;24.786;2023-06-26T09:00:20;98815.81;;;27.57;100.00
7026;BME280;3554;42.132;24.786;2023-06-26T09:02:47;98820.84;;;27.89;100.00
7026;BME280;3554;42.132;24.786;2023-06-26T09:05:14;98821.88;;;28.31;100.00
7026;BME280;3554;42.132;24.786;2023-06-26T09:07:41;98811.44;;;28.72;100.00
7026;BME280;3554;42.132;24.786;2023-06-26T09:10:09;98815.88;;;28.80;100.00
7026;BME280;3554;42.132;24.786;2023-06-26T09:12:36;98828.00;;;28.90;100.00
7026;BME280;3554;42.132;24.786;2023-06-26T09:15:05;98808.28;;;28.90;100.00
7026;BME280;3554;42.132;24.786;2023-06-26T09:17:38;98821.53;;;29.27;100.00
7026;BME280;3554;42.132;24.786;2023-06-26T09:20:06;98828.59;;;29.49;100.00
7026;BME280;3554;42.132;24.786;2023-06-26T09:22:37;98829.16;;;29.66;100.00
7026;BME280;3554;42.132;24.786;2023-06-26T09:25:05;98825.72;;;29.78;100.00
7026;BME280;3554;42.132;24.786;2023-06-26T09:27:34;98813.19;;;29.98;100.00
7026;BME280;3554;42.132;24.786;2023-06-26T09:30:01;98815.97;;;30.45;100.00
7026;BME280;3554;42.132;24.786;2023-06-26T09:32:29;98811.09;;;30.28;100.00
7026;BME280;3554;42.132;24.786;2023-06-26T09:34:56;98820.66;;;30.30;100.00
7026;BME280;3554;42.132;24.786;2023-06-26T09:37:22;98820.72;;;30.43;100.00
7026;BME280;3554;42.132;24.786;2023-06-26T09:39:50;98819.41;;;29.01;100.00
7026;BME280;3554;42.132;24.786;2023-06-26T09:42:17;98802.06;;;28.68;100.00
7026;BME280;3554;42.132;24.786;2023-06-26T09:44:47;98804.50;;;27.76;100.00
7026;BME280;3554;42.132;24.786;2023-06-26T09:47:16;98845.94;;;26.45;100.00
7026;BME280;3554;42.132;24.786;2023-06-26T09:49:45;98839.31;;;25.55;100.00
7026;BME280;3554;42.132;24.786;2023-06-26T09:52:14;98832.63;;;25.51;100.00
7026;BME280;3554;42.132;24.786;2023-06-26T09:54:41;98829.09;;;24.94;100.00
7026;BME280;3554;42.132;24.786;2023-06-26T09:57:11;98844.25;;;24.27;100.00
7026;BME280;3554;42.132;24.786;2023-06-26T09:59:38;98842.53;;;23.93;100.00
7026;BME280;3554;42.132;24.786;2023-06-26T10:02:07;98828.75;;;24.05;100.00
7026;BME280;3554;42.132;24.786;2023-06-26T10:04:35;98846.06;;;24.69;100.00
7026;BME280;3554;42.132;24.786;2023-06-26T10:07:04;98839.13;;;25.08;100.00
7026;BME280;3554;42.132;24.786;2023-06-26T10:09:32;98843.97;;;25.77;100.00
7026;BME280;3554;42.132;24.786;2023-06-26T10:12:03;98811.41;;;26.04;100.00
7026;BME280;3554;42.132;24.786;2023-06-26T10:14:34;98800.94;;;26.25;100.00
7026;BME280;3554;42.132;24.786;2023-06-26T10:17:04;98806.25;;;26.33;100.00
7026;BME280;3554;42.132;24.786;2023-06-26T10:19:35;98807.47;;;26.53;100.00
7026;BME280;3554;42.132;24.786;2023-06-26T10:22:04;98811.75;;;26.70;100.00
7026;BME280;3554;42.132;24.786;2023-06-26T10:24:34;98802.72;;;26.94;100.00
7026;BME280;3554;42.132;24.786;2023-06-26T10:27:04;98817.09;;;27.23;100.00
7026;BME280;3554;42.132;24.786;2023-06-26T10:29:35;98806.28;;;27.31;100.00
7026;BME280;3554;42.132;24.786;2023-06-26T10:32:04;98801.63;;;27.48;100.00
7026;BME280;3554;42.132;24.786;2023-06-26T10:34:33;98790.41;;;27.74;100.00
7026;BME280;3554;42.132;24.786;2023-06-26T10:37:00;98790.53;;;27.95;100.00
7026;BME280;3554;42.132;24.786;2023-06-26T10:39:45;98796.44;;;28.34;100.00
7026;BME280;3554;42.132;24.786;2023-06-26T10:42:12;98785.06;;;28.68;100.00
7026;BME280;3554;42.132;24.786;2023-06-26T10:44:41;98788.97;;;29.07;100.00
7026;BME280;3554;42.132;24.786;2023-06-26T10:47:09;98743.09;;;29.01;100.00
7026;BME280;3554;42.132;24.786;2023-06-26T10:49:38;98784.25;;;29.58;100.00
7026;BME280;3554;42.132;24.786;2023-06-26T10:52:06;98768.22;;;29.78;100.00
7026;BME280;3554;42.132;24.786;2023-06-26T10:54:33;98789.19;;;29.27;100.00
7026;BME280;3554;42.132;24.786;2023-06-26T10:57:01;98787.06;;;29.71;100.00
7026;BME280;3554;42.132;24.786;2023-06-26T10:59:31;98766.81;;;29.88;100.00
7026;BME280;3554;42.132;24.786;2023-06-26T11:01:59;98792.00;;;29.95;100.00
7026;BME280;3554;42.132;24.786;2023-06-26T11:04:41;98787.69;;;30.07;100.00
7026;BME280;3554;42.132;24.786;2023-06-26T11:07:18;98788.97;;;30.11;100.00
7026;BME280;3554;42.132;24.786;2023-06-26T11:09:58;98787.69;;;30.48;100.00
7026;BME280;3554;42.132;24.786;2023-06-26T11:12:36;98786.06;;;30.60;100.00
7026;BME280;3554;42.132;24.786;2023-06-26T11:15:03;98774.75;;;30.30;100.00
7026;BME280;3554;42.132;24.786;2023-06-26T11:17:31;98779.72;;;30.27;100.00
7026;BME280;3554;42.132;24.786;2023-06-26T11:19:59;98779.72;;;30.27;100.00
7026;BME280;3554;42.132;24.786;2023-06-26T11:22:26;98782.44;;;30.33;100.00
7026;BME280;3554;42.132;24.786;2023-06-26T11:24:54;98781.78;;;30.25;100.00
7026;BME280;3554;42.132;24.786;2023-06-26T11:27:21;98777.44;;;29.90;100.00
7026;BME280;3554;42.132;24.786;2023-06-26T11:29:49;98778.22;;;29.56;100.00
7026;BME280;3554;42.132;24.786;2023-06-26T11:32:16;98768.69;;;29.60;100.00
7026;BME280;3554;42.132;24.786;2023-06-26T11:34:43;98772.00;;;29.83;100.00
7026;BME280;3554;42.132;24.786;2023-06-26T11:37:11;98768.25;;;29.84;100.00
7026;BME280;3554;42.132;24.786;2023-06-26T11:39:38;98779.34;;;29.96;100.00
7026;BME280;3554;42.132;24.786;2023-06-26T11:42:05;98777.44;;;29.96;100.00
7026;BME280;3554;42.132;24.786;2023-06-26T11:44:32;98779.56;;;30.01;100.00
7026;BME280;3554;42.132;24.786;2023-06-26T11:46:58;98783.81;;;29.55;100.00
7026;BME280;3554;42.132;24.786;2023-06-26T11:49:25;98785.66;;;29.26;100.00
7026;BME280;3554;42.132;24.786;2023-06-26T11:51:53;98776.91;;;28.61;100.00
7026;BME280;3554;42.132;24.786;2023-06-26T11:54:26;98768.38;;;28.58;100.00
7026;BME280;3554;42.132;24.786;2023-06-26T11:56:54;98765.41;;;28.53;100.00
7026;BME280;3554;42.132;24.786;2023-06-26T11:59:23;98743.56;;;28.47;100.00
7026;BME280;3554;42.132;24.786;2023-06-26T12:01:51;98764.06;;;29.05;100.00
7026;BME280;3554;42.132;24.786;2023-06-26T12:04:18;98773.91;;;28.92;100.00
7026;BME280;3554;42.132;24.786;2023-06-26T12:06:47;98755.38;;;29.03;100.00
7026;BME280;3554;42.132;24.786;2023-06-26T12:09:15;98771.84;;;28.94;100.00
7026;BME280;3554;42.132;24.786;2023-06-26T12:11:47;98764.25;;;29.46;100.00
7026;BME280;3554;42.132;24.786;2023-06-26T12:14:15;98765.75;;;29.27;100.00
7026;BME280;3554;42.132;24.786;2023-06-26T12:16:44;98773.31;;;29.38;100.00
7026;BME280;3554;42.132;24.786;2023-06-26T12:19:11;98770.41;;;29.40;100.00
7026;BME280;3554;42.132;24.786;2023-06-26T12:21:46;98786.91;;;29.79;100.00
7026;BME280;3554;42.132;24.786;2023-06-26T12:24:15;98761.13;;;29.77;100.00
7026;BME280;3554;42.132;24.786;2023-06-26T12:26:45;98791.41;;;29.44;100.00
7026;BME280;3554;42.132;24.786;2023-06-26T12:29:14;98802.19;;;29.44;100.00
7026;BME280;3554;42.132;24.786;2023-06-26T12:31:43;98804.41;;;29.90;100.00
7026;BME280;3554;42.132;24.786;2023-06-26T12:34:12;98792.75;;;29.83;100.00
7026;BME280;3554;42.132;24.786;2023-06-26T12:36:43;98821.16;;;30.13;100.00
7026;BME280;3554;42.132;24.786;2023-06-26T12:39:11;98811.03;;;29.87;100.00
7026;BME280;3554;42.132;24.786;2023-06-26T12:41:52;98823.41;;;29.75;100.00
7026;BME280;3554;42.132;24.786;2023-06-26T12:44:19;98818.47;;;29.79;100.00
7026;BME280;3554;42.132;24.786;2023-06-26T12:46:48;98826.47;;;29.44;100.00
7026;BME280;3554;42.132;24.786;2023-06-26T12:49:15;98811.44;;;28.72;100.00
7026;BME280;3554;42.132;24.786;2023-06-26T12:51:43;98800.84;;;28.06;100.00
7026;BME280;3554;42.132;24.786;2023-06-26T12:54:10;98815.66;;;27.73;100.00
7026;BME280;3554;42.132;24.786;2023-06-26T12:56:37;98819.78;;;27.46;100.00
7026;BME280;3554;42.132;24.786;2023-06-26T12:59:05;98811.97;;;27.36;100.00
7026;BME280;3554;42.132;24.786;2023-06-26T13:01:32;98816.09;;;27.02;100.00
7026;BME280;3554;42.132;24.786;2023-06-26T13:03:59;98830.47;;;26.17;100.00